createdAt,value
2019-02-26T00:00:07.645Z,0.72
2019-02-26T00:02:41.706Z,0.70
2019-02-26T00:05:09.017Z,0.49
2019-02-26T00:07:36.378Z,0.40
2019-02-26T00:10:05.299Z,0.43
2019-02-26T00:12:33.278Z,0.34
2019-02-26T00:15:02.573Z,0.28
2019-02-26T00:17:30.218Z,0.24
2019-02-26T00:19:57.559Z,0.48
2019-02-26T00:22:24.938Z,-0.05
2019-02-26T00:24:52.257Z,0.14
2019-02-26T00:27:19.629Z,0.10
2019-02-26T00:29:48.742Z,0.39
2019-02-26T00:32:18.382Z,0.19
2019-02-26T00:34:45.457Z,0.37
2019-02-26T00:37:12.798Z,0.42
2019-02-26T00:39:40.157Z,0.06
2019-02-26T00:42:07.528Z,0.00
2019-02-26T00:44:37.164Z,-0.13
2019-02-26T00:47:04.986Z,-0.23
2019-02-26T00:49:33.359Z,-0.27
2019-02-26T00:52:00.733Z,-0.19
2019-02-26T00:54:29.196Z,-0.06
2019-02-26T00:57:01.087Z,-0.22
2019-02-26T00:59:26.599Z,-0.21
2019-02-26T01:01:54.855Z,-0.07
2019-02-26T01:04:22.578Z,-0.08
2019-02-26T01:06:49.937Z,0.09
2019-02-26T01:09:17.297Z,0.13
2019-02-26T01:11:47.160Z,-0.05
2019-02-26T01:14:15.863Z,0.17
2019-02-26T01:16:44.193Z,0.20
2019-02-26T01:19:13.503Z,0.12
2019-02-26T01:21:41.240Z,-0.16
2019-02-26T01:24:08.677Z,-0.19
2019-02-26T01:26:36.057Z,-0.32
2019-02-26T01:29:03.396Z,-0.41
2019-02-26T01:31:32.079Z,-0.47
2019-02-26T01:33:59.677Z,-0.41
2019-02-26T01:36:27.048Z,-0.26
2019-02-26T01:38:54.390Z,-0.30
2019-02-26T01:41:23.247Z,-0.23
2019-02-26T01:43:51.017Z,-0.59
2019-02-26T01:46:18.851Z,-0.22
2019-02-26T01:48:46.416Z,-0.65
2019-02-26T01:51:13.737Z,-0.32
2019-02-26T01:53:42.332Z,-0.75
2019-02-26T01:56:10.138Z,-0.52
2019-02-26T01:58:37.477Z,-0.57
2019-02-26T02:01:04.857Z,-0.27
2019-02-26T02:03:32.602Z,-0.66
2019-02-26T02:06:00.317Z,-0.69
2019-02-26T02:08:27.677Z,-0.63
2019-02-26T02:10:58.866Z,-0.63
2019-02-26T02:13:28.278Z,-0.41
2019-02-26T02:15:53.557Z,-0.52
2019-02-26T02:18:23.077Z,-0.48
2019-02-26T02:20:50.137Z,-0.65
2019-02-26T02:23:19.370Z,-0.31
2019-02-26T02:25:46.811Z,-0.24
2019-02-26T02:28:14.133Z,-0.47
2019-02-26T02:30:41.489Z,-0.72
2019-02-26T02:33:08.809Z,-0.48
2019-02-26T02:35:36.184Z,-0.40
2019-02-26T02:38:04.969Z,-0.75
2019-02-26T02:40:32.482Z,-0.59
2019-02-26T02:43:04.148Z,-0.65
2019-02-26T02:45:29.056Z,-0.41
2019-02-26T02:48:00.390Z,-0.57
2019-02-26T02:50:25.679Z,-0.48
2019-02-26T02:52:53.499Z,-0.45
2019-02-26T02:55:21.972Z,-0.51
2019-02-26T02:57:52.565Z,-0.55
2019-02-26T03:00:20.645Z,-0.39
2019-02-26T03:02:50.110Z,-0.38
2019-02-26T03:05:17.020Z,-0.39
2019-02-26T03:07:48.171Z,-0.41
2019-02-26T03:10:14.723Z,-0.70
2019-02-26T03:12:46.896Z,-0.48
2019-02-26T03:15:11.840Z,-0.44
2019-02-26T03:17:39.196Z,-0.72
2019-02-26T03:20:09.509Z,-0.59
2019-02-26T03:22:39.063Z,-0.46
2019-02-26T03:25:07.518Z,-0.72
2019-02-26T03:27:36.803Z,-0.72
2019-02-26T03:30:05.499Z,-1.09
2019-02-26T03:32:36.086Z,-0.85
2019-02-26T03:35:07.036Z,-0.87
2019-02-26T03:37:33.581Z,-0.73
2019-02-26T03:40:02.852Z,-1.01
2019-02-26T03:42:29.863Z,-0.90
2019-02-26T03:44:59.580Z,-0.78
2019-02-26T03:47:26.471Z,-0.83
2019-02-26T03:49:53.844Z,-0.73
2019-02-26T03:52:21.176Z,-0.73
2019-02-26T03:54:50.560Z,-0.93
2019-02-26T03:57:20.054Z,-0.83
2019-02-26T03:59:46.998Z,-0.66
2019-02-26T04:02:15.318Z,-0.79
2019-02-26T04:04:48.548Z,-0.81
2019-02-26T04:07:12.817Z,-0.77
2019-02-26T04:09:44.116Z,-0.68
2019-02-26T04:12:11.241Z,-0.68
2019-02-26T04:14:38.702Z,-0.67
2019-02-26T04:17:07.013Z,-0.73
2019-02-26T04:19:34.730Z,-0.71
2019-02-26T04:22:26.369Z,-0.78
2019-02-26T04:24:55.044Z,-0.67
2019-02-26T04:27:59.033Z,-0.68
2019-02-26T04:31:28.839Z,-0.66
2019-02-26T04:34:42.978Z,-0.70
2019-02-26T04:37:48.471Z,-0.75
2019-02-26T04:40:55.415Z,-0.82
2019-02-26T04:44:22.635Z,-0.89
2019-02-26T04:47:13.318Z,-0.83
2019-02-26T04:49:42.898Z,-0.85
2019-02-26T04:52:11.121Z,-0.77
2019-02-26T04:54:39.712Z,-0.79
2019-02-26T04:57:07.323Z,-0.64
2019-02-26T04:59:36.015Z,-0.74
2019-02-26T05:02:04.018Z,-1.12
2019-02-26T05:04:34.007Z,-1.12
2019-02-26T05:07:04.378Z,-0.86
2019-02-26T05:09:32.553Z,-0.88
2019-02-26T05:11:59.277Z,-1.31
2019-02-26T05:14:26.678Z,-0.97
2019-02-26T05:16:53.999Z,-1.09
2019-02-26T05:19:22.361Z,-1.03
2019-02-26T05:21:50.621Z,-0.93
2019-02-26T05:24:21.268Z,-1.05
2019-02-26T05:26:47.260Z,-0.89
2019-02-26T05:29:14.615Z,-1.21
2019-02-26T05:31:43.185Z,-1.09
2019-02-26T05:34:12.440Z,-1.09
2019-02-26T05:36:42.900Z,-1.00
2019-02-26T05:39:09.257Z,-1.01
2019-02-26T05:41:37.281Z,-1.12
2019-02-26T05:44:07.529Z,-1.12
2019-02-26T05:46:33.789Z,-1.27
2019-02-26T05:49:03.535Z,-1.00
2019-02-26T05:51:32.655Z,-1.16
2019-02-26T05:54:02.119Z,-0.96
2019-02-26T05:56:30.483Z,-0.96
2019-02-26T05:59:02.051Z,-1.04
2019-02-26T06:01:27.853Z,-1.02
2019-02-26T06:03:55.332Z,-1.19
2019-02-26T06:06:22.652Z,-0.96
2019-02-26T06:08:50.018Z,-0.99
2019-02-26T06:11:17.413Z,-1.00
2019-02-26T06:13:44.789Z,-0.94
2019-02-26T06:16:12.156Z,-1.12
2019-02-26T06:18:41.933Z,-1.01
2019-02-26T06:21:09.030Z,-0.92
2019-02-26T06:23:37.320Z,-1.04
2019-02-26T06:26:13.177Z,-1.04
2019-02-26T06:28:38.428Z,-0.94
2019-02-26T06:31:06.849Z,-1.04
2019-02-26T06:33:36.191Z,-0.75
2019-02-26T06:36:04.719Z,-0.76
2019-02-26T06:38:33.288Z,-0.76
2019-02-26T06:41:01.718Z,-0.65
2019-02-26T06:43:30.868Z,-0.75
2019-02-26T06:46:00.171Z,-0.60
2019-02-26T06:48:29.799Z,-0.46
2019-02-26T06:50:57.587Z,-0.67
2019-02-26T06:53:25.677Z,-0.59
2019-02-26T06:55:53.018Z,-0.64
2019-02-26T06:58:25.239Z,-0.58
2019-02-26T07:00:55.371Z,-0.27
2019-02-26T07:03:24.151Z,-0.16
2019-02-26T07:05:51.409Z,-0.22
2019-02-26T07:08:20.840Z,0.03
2019-02-26T07:10:48.172Z,-0.03
2019-02-26T07:13:15.577Z,0.06
2019-02-26T07:15:45.323Z,0.03
2019-02-26T07:18:16.830Z,-0.01
2019-02-26T07:20:46.513Z,-0.13
2019-02-26T07:23:12.791Z,0.08
2019-02-26T07:25:42.031Z,0.22
2019-02-26T07:28:09.340Z,0.07
2019-02-26T07:30:37.491Z,-0.11
2019-02-26T07:33:07.563Z,0.11
2019-02-26T07:35:35.502Z,-0.02
2019-02-26T07:38:04.191Z,0.17
2019-02-26T07:40:33.063Z,0.14
2019-02-26T07:43:04.896Z,0.23
2019-02-26T07:45:32.233Z,-0.12
2019-02-26T07:48:00.992Z,0.09
2019-02-26T07:50:31.387Z,0.09
2019-02-26T07:52:59.460Z,-0.10
2019-02-26T07:55:27.698Z,-0.02
2019-02-26T07:57:55.453Z,0.01
2019-02-26T08:00:23.317Z,0.21
2019-02-26T08:02:52.059Z,0.32
2019-02-26T08:05:21.351Z,0.07
2019-02-26T08:07:51.934Z,0.17
2019-02-26T08:10:19.563Z,0.26
2019-02-26T08:12:47.041Z,0.33
2019-02-26T08:15:15.724Z,0.20
2019-02-26T08:17:47.791Z,0.47
2019-02-26T08:20:15.046Z,0.51
2019-02-26T08:22:42.558Z,0.12
2019-02-26T08:25:10.070Z,0.11
2019-02-26T08:27:37.882Z,0.24
2019-02-26T08:30:08.449Z,0.12
2019-02-26T08:32:35.790Z,0.47
2019-02-26T08:35:04.018Z,0.60
2019-02-26T08:37:31.357Z,0.51
2019-02-26T08:39:58.697Z,0.62
2019-02-26T08:42:26.057Z,0.54
2019-02-26T08:44:54.253Z,0.61
2019-02-26T08:47:23.492Z,0.65
2019-02-26T08:49:51.070Z,0.70
2019-02-26T08:52:21.505Z,0.58
2019-02-26T08:54:47.658Z,0.61
2019-02-26T08:57:15.032Z,0.58
2019-02-26T08:59:44.658Z,0.54
2019-02-26T09:02:11.623Z,0.77
2019-02-26T09:04:40.707Z,0.76
2019-02-26T09:07:08.257Z,1.03
2019-02-26T09:09:35.638Z,1.11
2019-02-26T09:12:03.330Z,1.39
2019-02-26T09:14:34.507Z,1.90
2019-02-26T09:17:01.932Z,2.08
2019-02-26T09:19:30.332Z,2.32
2019-02-26T09:21:58.478Z,2.38
2019-02-26T09:24:25.837Z,2.48
2019-02-26T09:26:54.833Z,2.34
2019-02-26T09:29:22.425Z,2.36
2019-02-26T09:31:49.816Z,2.49
2019-02-26T09:34:17.158Z,2.83
2019-02-26T09:36:45.828Z,2.91
2019-02-26T09:39:15.372Z,3.15
2019-02-26T09:41:45.430Z,3.24
2019-02-26T09:44:12.177Z,3.25
2019-02-26T09:46:42.111Z,3.48
2019-02-26T09:49:11.848Z,3.39
2019-02-26T09:51:40.027Z,3.37
2019-02-26T09:54:07.280Z,3.61
2019-02-26T09:56:34.649Z,3.81
2019-02-26T09:59:02.825Z,3.99
2019-02-26T10:01:33.124Z,3.68
2019-02-26T10:04:02.722Z,3.87
2019-02-26T10:06:29.797Z,4.10
2019-02-26T10:08:57.137Z,3.99
2019-02-26T10:11:26.122Z,4.17
2019-02-26T10:13:53.778Z,3.98
2019-02-26T10:16:23.399Z,4.01
2019-02-26T10:18:52.544Z,4.11
2019-02-26T10:21:20.554Z,4.38
2019-02-26T10:23:51.481Z,4.74
2019-02-26T10:26:17.354Z,4.61
2019-02-26T10:28:46.785Z,4.70
2019-02-26T10:31:14.011Z,4.85
2019-02-26T10:33:44.011Z,5.01
2019-02-26T10:36:13.038Z,5.01
2019-02-26T10:38:39.838Z,5.19
2019-02-26T10:41:07.173Z,5.32
2019-02-26T10:43:34.535Z,4.95
2019-02-26T10:46:01.849Z,4.84
2019-02-26T10:48:29.177Z,4.83
2019-02-26T10:50:56.589Z,5.12
2019-02-26T10:53:23.985Z,5.52
2019-02-26T10:55:51.392Z,5.76
2019-02-26T10:58:19.842Z,5.66
2019-02-26T11:00:50.597Z,5.73
2019-02-26T11:03:20.232Z,5.50
2019-02-26T11:05:48.661Z,5.84
2019-02-26T11:08:16.861Z,5.97
2019-02-26T11:10:44.962Z,6.05
2019-02-26T11:13:17.177Z,6.07
2019-02-26T11:15:42.718Z,6.04
2019-02-26T11:18:11.637Z,6.26
2019-02-26T11:20:39.319Z,6.52
2019-02-26T11:23:08.958Z,6.67
2019-02-26T11:25:37.020Z,6.31
2019-02-26T11:28:05.633Z,6.69
2019-02-26T11:30:33.817Z,6.26
2019-02-26T11:33:04.764Z,6.54
2019-02-26T11:35:30.485Z,6.42
2019-02-26T11:37:58.243Z,6.85
2019-02-26T11:40:29.666Z,7.18
2019-02-26T11:42:55.128Z,7.29
2019-02-26T11:45:24.121Z,7.29
2019-02-26T11:47:51.465Z,7.17
2019-02-26T11:50:19.118Z,7.46
2019-02-26T11:52:46.518Z,7.65
2019-02-26T11:55:14.357Z,7.52
2019-02-26T11:57:43.185Z,7.77
2019-02-26T12:00:24.348Z,7.60
2019-02-26T12:02:44.511Z,7.64
2019-02-26T12:05:12.103Z,7.82
2019-02-26T12:07:39.406Z,7.82
2019-02-26T12:10:11.687Z,7.80
2019-02-26T12:12:37.158Z,7.73
2019-02-26T12:15:07.306Z,8.04
2019-02-26T12:17:37.689Z,7.34
2019-02-26T12:20:06.199Z,6.92
2019-02-26T12:22:33.573Z,7.12
2019-02-26T12:25:02.718Z,7.26
2019-02-26T12:27:30.167Z,7.55
2019-02-26T12:29:57.487Z,7.97
2019-02-26T12:32:26.892Z,7.85
2019-02-26T12:34:54.001Z,8.18
2019-02-26T12:37:21.346Z,7.58
2019-02-26T12:39:49.962Z,7.63
2019-02-26T12:42:18.709Z,8.19
2019-02-26T12:44:46.731Z,8.26
2019-02-26T12:47:15.429Z,8.70
2019-02-26T12:49:45.124Z,8.70
2019-02-26T12:52:14.966Z,8.86
2019-02-26T12:54:42.826Z,7.89
2019-02-26T12:57:10.458Z,8.20
2019-02-26T12:59:37.895Z,8.19
2019-02-26T13:02:09.124Z,7.91
2019-02-26T13:04:37.485Z,7.85
2019-02-26T13:07:05.419Z,8.31
2019-02-26T13:09:33.567Z,8.18
2019-02-26T13:12:02.864Z,8.08
2019-02-26T13:14:30.224Z,8.41
2019-02-26T13:17:00.044Z,8.10
2019-02-26T13:19:32.676Z,8.32
2019-02-26T13:22:04.892Z,8.73
2019-02-26T13:24:26.487Z,8.68
2019-02-26T13:26:59.165Z,9.12
2019-02-26T13:29:23.654Z,9.20
2019-02-26T13:31:56.481Z,9.47
2019-02-26T13:34:20.245Z,9.60
2019-02-26T13:36:52.745Z,10.16
2019-02-26T13:39:21.826Z,10.26
2019-02-26T13:41:46.138Z,10.53
2019-02-26T13:44:13.614Z,10.67
2019-02-26T13:46:40.983Z,10.77
2019-02-26T13:49:08.378Z,10.50
2019-02-26T13:51:35.757Z,10.37
2019-02-26T13:54:03.146Z,10.26
2019-02-26T13:56:30.562Z,10.41
2019-02-26T13:58:57.898Z,10.58
2019-02-26T14:01:25.257Z,10.65
2019-02-26T14:03:52.698Z,9.94
2019-02-26T14:06:19.999Z,9.46
2019-02-26T14:08:47.339Z,9.53
2019-02-26T14:11:14.677Z,9.51
2019-02-26T14:13:41.986Z,10.19
2019-02-26T14:16:09.696Z,10.50
2019-02-26T14:18:37.110Z,11.42
2019-02-26T14:21:04.591Z,11.28
2019-02-26T14:23:34.941Z,10.80
2019-02-26T14:26:01.104Z,10.61
2019-02-26T14:28:28.497Z,10.96
2019-02-26T14:30:55.846Z,10.79
2019-02-26T14:33:23.178Z,10.80
2019-02-26T14:35:50.618Z,10.81
2019-02-26T14:38:17.966Z,10.57
2019-02-26T14:40:45.305Z,10.16
2019-02-26T14:43:12.631Z,9.92
2019-02-26T14:45:39.971Z,9.56
2019-02-26T14:48:07.574Z,9.39
2019-02-26T14:50:34.905Z,9.32
2019-02-26T14:53:03.179Z,9.79
2019-02-26T14:55:30.531Z,9.58
2019-02-26T14:57:57.839Z,9.68
2019-02-26T15:00:26.335Z,10.16
2019-02-26T15:02:53.629Z,10.42
2019-02-26T15:05:20.959Z,10.09
2019-02-26T15:07:48.342Z,10.77
2019-02-26T15:10:15.779Z,10.70
2019-02-26T15:12:43.128Z,10.25
2019-02-26T15:15:10.759Z,9.70
2019-02-26T15:17:38.139Z,10.27
2019-02-26T15:20:07.549Z,9.72
2019-02-26T15:22:34.887Z,9.09
2019-02-26T15:25:02.291Z,9.61
2019-02-26T15:27:36.939Z,9.72
2019-02-26T15:29:59.682Z,9.15
2019-02-26T15:32:27.109Z,8.52
2019-02-26T15:34:54.454Z,9.09
2019-02-26T15:37:21.882Z,9.36
2019-02-26T15:39:50.814Z,8.76
2019-02-26T15:42:19.108Z,9.71
2019-02-26T15:44:47.664Z,9.49
2019-02-26T15:47:15.033Z,9.18
2019-02-26T15:49:42.334Z,8.84
2019-02-26T15:52:09.674Z,8.84
2019-02-26T15:54:37.073Z,8.83
2019-02-26T15:57:04.515Z,8.59
2019-02-26T15:59:35.635Z,9.15
2019-02-26T16:02:03.008Z,9.18
2019-02-26T16:04:30.369Z,8.50
2019-02-26T16:06:57.921Z,8.75
2019-02-26T16:09:25.272Z,8.90
2019-02-26T16:11:52.732Z,8.82
2019-02-26T16:14:20.159Z,8.93
2019-02-26T16:16:47.514Z,9.24
2019-02-26T16:19:15.111Z,7.93
2019-02-26T16:21:42.578Z,8.65
2019-02-26T16:24:09.989Z,8.58
2019-02-26T16:26:38.428Z,8.58
2019-02-26T16:29:06.832Z,8.80
2019-02-26T16:31:34.460Z,8.96
2019-02-26T16:34:02.195Z,8.98
2019-02-26T16:36:31.590Z,8.98
2019-02-26T16:38:59.256Z,8.52
2019-02-26T16:41:26.639Z,8.83
2019-02-26T16:43:54.492Z,8.29
2019-02-26T16:46:21.954Z,8.23
2019-02-26T16:48:53.124Z,8.09
2019-02-26T16:51:21.673Z,8.34
2019-02-26T16:53:49.564Z,8.15
2019-02-26T16:56:17.205Z,8.27
2019-02-26T16:58:44.865Z,7.88
2019-02-26T17:01:12.925Z,7.72
2019-02-26T17:03:40.490Z,7.36
2019-02-26T17:06:08.093Z,7.45
2019-02-26T17:08:35.877Z,7.74
2019-02-26T17:11:04.147Z,7.03
2019-02-26T17:13:32.099Z,6.73
2019-02-26T17:16:00.225Z,6.05
2019-02-26T17:18:28.151Z,6.30
2019-02-26T17:20:56.940Z,6.08
2019-02-26T17:23:26.465Z,5.94
2019-02-26T17:25:54.177Z,5.78
2019-02-26T17:28:22.133Z,6.35
2019-02-26T17:30:49.991Z,6.91
2019-02-26T17:33:17.977Z,6.10
2019-02-26T17:35:45.911Z,6.81
2019-02-26T17:38:15.527Z,6.60
2019-02-26T17:40:43.503Z,6.32
2019-02-26T17:43:11.306Z,6.10
2019-02-26T17:45:38.997Z,6.52
2019-02-26T17:48:06.909Z,5.93
2019-02-26T17:50:35.166Z,6.21
2019-02-26T17:53:03.095Z,6.02
2019-02-26T17:55:31.051Z,6.23
2019-02-26T17:58:00.690Z,5.99
2019-02-26T18:00:30.635Z,6.40
2019-02-26T18:02:58.638Z,6.43
2019-02-26T18:05:26.451Z,5.91
2019-02-26T18:07:54.152Z,5.36
2019-02-26T18:10:22.160Z,5.93
2019-02-26T18:12:50.085Z,5.72
2019-02-26T18:15:18.572Z,5.34
2019-02-26T18:17:46.502Z,5.57
2019-02-26T18:20:16.234Z,5.62
2019-02-26T18:22:44.151Z,5.30
2019-02-26T18:25:12.718Z,5.13
2019-02-26T18:27:40.533Z,5.30
2019-02-26T18:30:11.591Z,5.30
2019-02-26T18:32:39.537Z,5.02
2019-02-26T18:35:07.553Z,5.08
2019-02-26T18:37:35.482Z,5.05
2019-02-26T18:40:05.214Z,4.92
2019-02-26T18:42:34.584Z,5.02
2019-02-26T18:45:02.478Z,4.62
2019-02-26T18:47:31.558Z,4.30
2019-02-26T18:49:59.339Z,4.27
2019-02-26T18:52:27.156Z,4.58
2019-02-26T18:54:55.153Z,4.28
2019-02-26T18:57:24.787Z,4.14
2019-02-26T18:59:53.596Z,4.17
2019-02-26T19:02:24.245Z,4.20
2019-02-26T19:04:52.097Z,4.06
2019-02-26T19:07:19.891Z,4.33
2019-02-26T19:09:47.643Z,4.09
2019-02-26T19:12:15.445Z,4.28
2019-02-26T19:14:43.739Z,4.11
2019-02-26T19:17:11.631Z,4.11
2019-02-26T19:19:39.707Z,4.38
2019-02-26T19:22:09.089Z,4.74
2019-02-26T19:24:36.862Z,4.10
2019-02-26T19:27:04.720Z,4.03
2019-02-26T19:29:35.221Z,4.27
2019-02-26T19:32:03.069Z,4.47
2019-02-26T19:34:30.908Z,4.33
2019-02-26T19:36:59.275Z,4.60
2019-02-26T19:39:28.827Z,4.41
2019-02-26T19:41:56.718Z,4.42
2019-02-26T19:44:24.745Z,4.29
2019-02-26T19:46:52.689Z,4.27
2019-02-26T19:49:20.712Z,4.28
2019-02-26T19:51:50.174Z,4.18
2019-02-26T19:54:18.116Z,3.84
2019-02-26T19:56:46.128Z,3.70
2019-02-26T19:59:14.297Z,3.74
2019-02-26T20:01:42.355Z,3.85
2019-02-26T20:04:12.367Z,3.86
2019-02-26T20:06:41.373Z,3.63
2019-02-26T20:09:09.412Z,3.57
2019-02-26T20:11:37.244Z,3.68
2019-02-26T20:14:05.118Z,3.72
2019-02-26T20:16:32.856Z,3.76
2019-02-26T20:19:00.817Z,3.59
2019-02-26T20:21:29.808Z,3.71
2019-02-26T20:23:57.647Z,3.50
2019-02-26T20:26:25.563Z,3.54
2019-02-26T20:28:53.527Z,3.73
2019-02-26T20:31:21.922Z,3.69
2019-02-26T20:33:50.478Z,3.64
2019-02-26T20:36:18.545Z,3.62
2019-02-26T20:38:46.777Z,3.56
2019-02-26T20:41:14.768Z,3.88
2019-02-26T20:43:42.547Z,4.17
2019-02-26T20:46:10.359Z,4.32
2019-02-26T20:48:38.605Z,3.81
2019-02-26T20:51:06.313Z,3.73
2019-02-26T20:53:38.567Z,3.50
2019-02-26T20:56:04.049Z,3.48
2019-02-26T20:58:32.038Z,3.49
2019-02-26T21:00:59.948Z,3.57
2019-02-26T21:03:27.582Z,3.58
2019-02-26T21:05:55.448Z,3.78
2019-02-26T21:08:23.237Z,4.01
2019-02-26T21:10:51.014Z,3.78
2019-02-26T21:13:18.677Z,3.69
2019-02-26T21:15:48.052Z,3.64
2019-02-26T21:18:16.219Z,3.64
2019-02-26T21:20:44.132Z,3.62
2019-02-26T21:23:11.798Z,4.12
2019-02-26T21:25:43.914Z,4.43
2019-02-26T21:28:09.221Z,4.17
2019-02-26T21:30:36.909Z,3.90
2019-02-26T21:33:04.534Z,3.70
2019-02-26T21:35:32.101Z,3.65
2019-02-26T21:37:59.901Z,3.52
2019-02-26T21:40:27.514Z,3.56
2019-02-26T21:42:55.041Z,3.54
2019-02-26T21:45:23.277Z,3.36
2019-02-26T21:47:50.823Z,3.36
2019-02-26T21:50:22.134Z,3.16
2019-02-26T21:52:58.992Z,3.79
2019-02-26T21:55:16.913Z,3.49
2019-02-26T21:57:44.312Z,3.38
2019-02-26T22:00:13.741Z,3.45
2019-02-26T22:02:41.121Z,3.73
2019-02-26T22:05:08.677Z,3.59
2019-02-26T22:07:36.069Z,3.28
2019-02-26T22:10:07.027Z,3.18
2019-02-26T22:12:33.081Z,3.17
2019-02-26T22:15:00.462Z,3.43
2019-02-26T22:17:27.810Z,3.35
2019-02-26T22:19:55.150Z,3.35
2019-02-26T22:22:25.996Z,3.32
2019-02-26T22:24:52.155Z,3.41
2019-02-26T22:27:19.523Z,3.32
2019-02-26T22:29:48.108Z,3.30
2019-02-26T22:32:16.150Z,3.27
2019-02-26T22:34:43.484Z,3.21
2019-02-26T22:37:10.798Z,3.24
2019-02-26T22:39:38.182Z,3.27
2019-02-26T22:42:07.861Z,3.40
2019-02-26T22:44:34.801Z,3.52
2019-02-26T22:47:04.690Z,3.44
2019-02-26T22:49:31.897Z,3.24
2019-02-26T22:51:59.242Z,3.35
2019-02-26T22:54:26.574Z,3.35
2019-02-26T22:56:56.662Z,3.26
2019-02-26T22:59:23.221Z,3.48
2019-02-26T23:01:51.141Z,3.46
2019-02-26T23:04:19.773Z,3.21
2019-02-26T23:06:47.761Z,3.36
2019-02-26T23:09:18.939Z,3.43
2019-02-26T23:11:46.700Z,3.17
2019-02-26T23:14:14.401Z,3.15
2019-02-26T23:16:42.135Z,3.14
2019-02-26T23:19:09.641Z,3.21
2019-02-26T23:21:37.038Z,3.22
2019-02-26T23:24:04.973Z,3.08
2019-02-26T23:26:33.369Z,3.04
2019-02-26T23:29:00.721Z,3.26
2019-02-26T23:31:28.078Z,3.37
2019-02-26T23:33:55.437Z,3.17
2019-02-26T23:36:22.803Z,3.01
2019-02-26T23:38:50.184Z,3.09
2019-02-26T23:41:17.456Z,3.06
2019-02-26T23:43:45.468Z,3.15
2019-02-26T23:46:13.323Z,3.28
2019-02-26T23:48:41.385Z,3.22
2019-02-26T23:51:09.000Z,3.25
2019-02-26T23:53:36.295Z,3.34
2019-02-26T23:56:03.581Z,3.27
2019-02-26T23:58:31.601Z,3.07
